Terminal Aerodrome Forecast
Issued by NWS

Home | Current Version | Previous Version | Text Only | Print | Product List | Glossary On
Versions: 1 2 3 4 5 6 7 8 9 10 11 12 13 14 15 16 17 18 19 20 21 22 23 24 25
000
FTUS45 KPSR 271700
TAFPHX
TAF
KPHX 271720Z 2718/2818 15009KT P6SM FEW150 SCT250
     FM272100 25010KT P6SM FEW150 SCT250
     FM280500 11010KT P6SM FEW150 BKN250
     FM281200 12014KT P6SM SCT060 BKN150=

USA.gov is the U.S. government's official web portal to all federal, state and local government web resources and services.